sensor_id;sensor_type;location;lat;lon;timestamp;P1;durP1;ratioP1;P2;durP2;ratioP2
8213;SDS011;4148;47.974;7.824;2022-11-15T00:01:07;7.07;;;5.03;;
8213;SDS011;4148;47.974;7.824;2022-11-15T00:03:36;6.57;;;4.93;;
8213;SDS011;4148;47.974;7.824;2022-11-15T00:06:04;7.80;;;4.60;;
8213;SDS011;4148;47.974;7.824;2022-11-15T00:08:32;7.07;;;4.50;;
8213;SDS011;4148;47.974;7.824;2022-11-15T00:11:01;5.30;;;4.40;;
8213;SDS011;4148;47.974;7.824;2022-11-15T00:13:31;7.33;;;3.87;;
8213;SDS011;4148;47.974;7.824;2022-11-15T00:16:00;3.83;;;3.30;;
8213;SDS011;4148;47.974;7.824;2022-11-15T00:18:28;6.80;;;3.77;;
8213;SDS011;4148;47.974;7.824;2022-11-15T00:21:02;8.27;;;3.87;;
8213;SDS011;4148;47.974;7.824;2022-11-15T00:23:32;3.80;;;3.03;;
8213;SDS011;4148;47.974;7.824;2022-11-15T00:26:00;5.40;;;4.00;;
8213;SDS011;4148;47.974;7.824;2022-11-15T00:28:28;5.00;;;3.80;;
8213;SDS011;4148;47.974;7.824;2022-11-15T00:31:00;4.00;;;3.60;;
8213;SDS011;4148;47.974;7.824;2022-11-15T00:33:29;5.13;;;3.40;;
8213;SDS011;4148;47.974;7.824;2022-11-15T00:36:01;5.57;;;3.40;;
8213;SDS011;4148;47.974;7.824;2022-11-15T00:38:31;5.27;;;3.70;;
8213;SDS011;4148;47.974;7.824;2022-11-15T00:41:00;8.47;;;4.03;;
8213;SDS011;4148;47.974;7.824;2022-11-15T00:43:34;4.60;;;3.40;;
8213;SDS011;4148;47.974;7.824;2022-11-15T00:46:04;7.13;;;3.93;;
8213;SDS011;4148;47.974;7.824;2022-11-15T00:48:34;5.67;;;3.60;;
8213;SDS011;4148;47.974;7.824;2022-11-15T00:51:02;4.43;;;3.40;;
8213;SDS011;4148;47.974;7.824;2022-11-15T00:53:30;4.70;;;3.50;;
8213;SDS011;4148;47.974;7.824;2022-11-15T00:55:58;5.70;;;3.20;;
8213;SDS011;4148;47.974;7.824;2022-11-15T00:58:26;5.07;;;3.13;;
8213;SDS011;4148;47.974;7.824;2022-11-15T01:00:54;3.90;;;2.73;;
8213;SDS011;4148;47.974;7.824;2022-11-15T01:03:23;7.37;;;3.50;;
8213;SDS011;4148;47.974;7.824;2022-11-15T01:05:51;4.47;;;3.10;;
8213;SDS011;4148;47.974;7.824;2022-11-15T01:08:19;7.70;;;4.60;;
8213;SDS011;4148;47.974;7.824;2022-11-15T01:10:46;6.33;;;3.70;;
8213;SDS011;4148;47.974;7.824;2022-11-15T01:13:14;6.00;;;3.97;;
8213;SDS011;4148;47.974;7.824;2022-11-15T01:15:42;7.03;;;3.60;;
8213;SDS011;4148;47.974;7.824;2022-11-15T01:18:10;8.73;;;3.37;;
8213;SDS011;4148;47.974;7.824;2022-11-15T01:20:40;7.00;;;3.63;;
8213;SDS011;4148;47.974;7.824;2022-11-15T01:23:09;4.23;;;3.07;;
8213;SDS011;4148;47.974;7.824;2022-11-15T01:25:37;5.23;;;3.23;;
8213;SDS011;4148;47.974;7.824;2022-11-15T01:28:05;5.27;;;3.27;;
8213;SDS011;4148;47.974;7.824;2022-11-15T01:30:32;4.60;;;3.40;;
8213;SDS011;4148;47.974;7.824;2022-11-15T01:33:00;3.67;;;2.60;;
8213;SDS011;4148;47.974;7.824;2022-11-15T01:35:28;3.80;;;3.23;;
8213;SDS011;4148;47.974;7.824;2022-11-15T01:37:57;4.77;;;3.37;;
8213;SDS011;4148;47.974;7.824;2022-11-15T01:40:25;4.73;;;3.17;;
8213;SDS011;4148;47.974;7.824;2022-11-15T01:42:53;5.90;;;3.20;;
8213;SDS011;4148;47.974;7.824;2022-11-15T01:45:21;5.93;;;3.10;;
8213;SDS011;4148;47.974;7.824;2022-11-15T01:47:50;4.87;;;3.10;;
8213;SDS011;4148;47.974;7.824;2022-11-15T01:50:22;4.33;;;3.20;;
8213;SDS011;4148;47.974;7.824;2022-11-15T01:52:54;3.53;;;2.70;;
8213;SDS011;4148;47.974;7.824;2022-11-15T01:55:24;5.57;;;2.90;;
8213;SDS011;4148;47.974;7.824;2022-11-15T01:57:55;4.13;;;2.50;;
8213;SDS011;4148;47.974;7.824;2022-11-15T02:00:27;3.70;;;2.60;;
8213;SDS011;4148;47.974;7.824;2022-11-15T02:02:56;3.27;;;2.67;;
8213;SDS011;4148;47.974;7.824;2022-11-15T02:05:24;3.07;;;2.27;;
8213;SDS011;4148;47.974;7.824;2022-11-15T02:07:53;3.93;;;2.23;;
8213;SDS011;4148;47.974;7.824;2022-11-15T02:10:22;3.90;;;2.60;;
8213;SDS011;4148;47.974;7.824;2022-11-15T02:12:51;4.40;;;2.50;;
8213;SDS011;4148;47.974;7.824;2022-11-15T02:15:20;3.67;;;2.60;;
8213;SDS011;4148;47.974;7.824;2022-11-15T02:17:57;5.13;;;2.20;;
8213;SDS011;4148;47.974;7.824;2022-11-15T02:20:39;3.57;;;1.47;;
8213;SDS011;4148;47.974;7.824;2022-11-15T02:26:24;1.83;;;1.40;;
8213;SDS011;4148;47.974;7.824;2022-11-15T02:29:15;2.10;;;1.30;;
8213;SDS011;4148;47.974;7.824;2022-11-15T02:31:53;2.10;;;1.37;;
8213;SDS011;4148;47.974;7.824;2022-11-15T02:34:28;1.60;;;1.10;;
8213;SDS011;4148;47.974;7.824;2022-11-15T02:37:03;1.90;;;1.30;;
8213;SDS011;4148;47.974;7.824;2022-11-15T02:39:40;1.90;;;1.43;;
8213;SDS011;4148;47.974;7.824;2022-11-15T02:42:15;2.00;;;1.50;;
8213;SDS011;4148;47.974;7.824;2022-11-15T02:45:04;1.90;;;1.40;;
8213;SDS011;4148;47.974;7.824;2022-11-15T02:47:40;1.60;;;1.30;;
8213;SDS011;4148;47.974;7.824;2022-11-15T02:50:11;2.23;;;1.20;;
8213;SDS011;4148;47.974;7.824;2022-11-15T02:52:44;2.07;;;1.30;;
8213;SDS011;4148;47.974;7.824;2022-11-15T02:58:00;3.07;;;1.23;;
8213;SDS011;4148;47.974;7.824;2022-11-15T03:00:35;2.17;;;1.47;;
8213;SDS011;4148;47.974;7.824;2022-11-15T03:03:17;1.53;;;1.20;;
8213;SDS011;4148;47.974;7.824;2022-11-15T03:05:57;1.73;;;1.40;;
8213;SDS011;4148;47.974;7.824;2022-11-15T03:08:35;1.67;;;1.20;;
8213;SDS011;4148;47.974;7.824;2022-11-15T03:11:10;1.70;;;1.23;;
8213;SDS011;4148;47.974;7.824;2022-11-15T03:13:42;2.00;;;1.30;;
8213;SDS011;4148;47.974;7.824;2022-11-15T03:16:17;2.30;;;1.30;;
8213;SDS011;4148;47.974;7.824;2022-11-15T03:18:53;2.00;;;1.40;;
8213;SDS011;4148;47.974;7.824;2022-11-15T03:21:27;1.60;;;1.20;;
8213;SDS011;4148;47.974;7.824;2022-11-15T03:23:57;2.37;;;1.30;;
8213;SDS011;4148;47.974;7.824;2022-11-15T03:26:30;2.10;;;1.50;;
8213;SDS011;4148;47.974;7.824;2022-11-15T03:29:03;2.73;;;1.40;;
8213;SDS011;4148;47.974;7.824;2022-11-15T03:31:36;2.97;;;1.57;;
8213;SDS011;4148;47.974;7.824;2022-11-15T03:34:20;2.50;;;1.40;;
8213;SDS011;4148;47.974;7.824;2022-11-15T03:36:53;2.40;;;1.47;;
8213;SDS011;4148;47.974;7.824;2022-11-15T03:39:21;2.57;;;1.40;;
8213;SDS011;4148;47.974;7.824;2022-11-15T03:41:52;2.50;;;1.30;;
8213;SDS011;4148;47.974;7.824;2022-11-15T03:44:35;3.30;;;1.40;;
8213;SDS011;4148;47.974;7.824;2022-11-15T03:47:09;4.90;;;2.23;;
8213;SDS011;4148;47.974;7.824;2022-11-15T03:49:42;5.20;;;2.60;;
8213;SDS011;4148;47.974;7.824;2022-11-15T03:52:13;2.70;;;2.30;;
8213;SDS011;4148;47.974;7.824;2022-11-15T03:54:48;3.97;;;2.97;;
8213;SDS011;4148;47.974;7.824;2022-11-15T03:57:17;3.90;;;2.63;;
8213;SDS011;4148;47.974;7.824;2022-11-15T03:59:45;2.70;;;2.43;;
8213;SDS011;4148;47.974;7.824;2022-11-15T04:02:13;7.10;;;3.10;;
8213;SDS011;4148;47.974;7.824;2022-11-15T04:04:42;3.37;;;2.87;;
8213;SDS011;4148;47.974;7.824;2022-11-15T04:07:10;3.20;;;2.60;;
8213;SDS011;4148;47.974;7.824;2022-11-15T04:09:38;4.43;;;2.80;;
8213;SDS011;4148;47.974;7.824;2022-11-15T04:12:20;5.43;;;3.37;;
8213;SDS011;4148;47.974;7.824;2022-11-15T04:14:57;3.67;;;2.60;;
8213;SDS011;4148;47.974;7.824;2022-11-15T04:17:37;3.30;;;3.00;;
8213;SDS011;4148;47.974;7.824;2022-11-15T04:20:10;4.23;;;3.07;;
8213;SDS011;4148;47.974;7.824;2022-11-15T04:22:57;4.10;;;3.07;;
8213;SDS011;4148;47.974;7.824;2022-11-15T04:25:44;5.67;;;3.13;;
8213;SDS011;4148;47.974;7.824;2022-11-15T04:28:13;4.23;;;2.80;;
8213;SDS011;4148;47.974;7.824;2022-11-15T04:30:40;5.67;;;3.63;;
8213;SDS011;4148;47.974;7.824;2022-11-15T04:33:08;4.33;;;3.10;;
8213;SDS011;4148;47.974;7.824;2022-11-15T04:35:38;5.10;;;3.47;;
8213;SDS011;4148;47.974;7.824;2022-11-15T04:38:06;4.93;;;3.50;;
8213;SDS011;4148;47.974;7.824;2022-11-15T04:40:34;8.13;;;3.80;;
8213;SDS011;4148;47.974;7.824;2022-11-15T04:43:02;4.70;;;3.60;;
8213;SDS011;4148;47.974;7.824;2022-11-15T04:45:31;6.63;;;4.13;;
8213;SDS011;4148;47.974;7.824;2022-11-15T04:47:58;5.73;;;3.77;;
8213;SDS011;4148;47.974;7.824;2022-11-15T04:50:26;5.77;;;3.50;;
8213;SDS011;4148;47.974;7.824;2022-11-15T04:52:56;6.30;;;3.70;;
8213;SDS011;4148;47.974;7.824;2022-11-15T04:55:24;4.33;;;3.10;;
8213;SDS011;4148;47.974;7.824;2022-11-15T04:57:58;4.40;;;3.27;;
8213;SDS011;4148;47.974;7.824;2022-11-15T05:00:26;8.73;;;3.47;;
8213;SDS011;4148;47.974;7.824;2022-11-15T05:02:57;4.17;;;3.03;;
8213;SDS011;4148;47.974;7.824;2022-11-15T05:05:42;4.63;;;3.40;;
8213;SDS011;4148;47.974;7.824;2022-11-15T05:08:11;3.43;;;3.00;;
8213;SDS011;4148;47.974;7.824;2022-11-15T05:10:39;4.57;;;3.20;;
8213;SDS011;4148;47.974;7.824;2022-11-15T05:13:07;4.40;;;2.77;;
8213;SDS011;4148;47.974;7.824;2022-11-15T05:15:35;7.27;;;3.33;;
8213;SDS011;4148;47.974;7.824;2022-11-15T05:18:02;5.33;;;3.20;;
8213;SDS011;4148;47.974;7.824;2022-11-15T05:20:30;4.73;;;3.20;;
8213;SDS011;4148;47.974;7.824;2022-11-15T05:22:58;3.53;;;2.77;;
8213;SDS011;4148;47.974;7.824;2022-11-15T05:25:27;5.00;;;3.40;;
8213;SDS011;4148;47.974;7.824;2022-11-15T05:27:55;3.80;;;3.13;;
8213;SDS011;4148;47.974;7.824;2022-11-15T05:30:23;4.60;;;3.20;;
8213;SDS011;4148;47.974;7.824;2022-11-15T05:32:51;6.23;;;2.87;;
8213;SDS011;4148;47.974;7.824;2022-11-15T05:35:22;4.90;;;3.50;;
8213;SDS011;4148;47.974;7.824;2022-11-15T05:37:56;3.90;;;3.10;;
8213;SDS011;4148;47.974;7.824;2022-11-15T05:40:24;5.03;;;3.50;;
8213;SDS011;4148;47.974;7.824;2022-11-15T05:42:54;7.57;;;3.43;;
8213;SDS011;4148;47.974;7.824;2022-11-15T05:45:22;5.20;;;3.90;;
8213;SDS011;4148;47.974;7.824;2022-11-15T05:47:52;4.50;;;3.50;;
8213;SDS011;4148;47.974;7.824;2022-11-15T05:50:22;3.87;;;3.47;;
8213;SDS011;4148;47.974;7.824;2022-11-15T05:52:50;4.00;;;3.13;;
8213;SDS011;4148;47.974;7.824;2022-11-15T05:55:19;6.70;;;3.80;;
8213;SDS011;4148;47.974;7.824;2022-11-15T05:57:47;3.90;;;2.80;;
8213;SDS011;4148;47.974;7.824;2022-11-15T06:00:16;4.90;;;3.40;;
8213;SDS011;4148;47.974;7.824;2022-11-15T06:02:44;4.40;;;3.50;;
8213;SDS011;4148;47.974;7.824;2022-11-15T06:05:12;4.80;;;3.23;;
8213;SDS011;4148;47.974;7.824;2022-11-15T06:07:40;4.43;;;3.53;;
8213;SDS011;4148;47.974;7.824;2022-11-15T06:10:08;4.70;;;3.10;;
8213;SDS011;4148;47.974;7.824;2022-11-15T06:12:36;5.60;;;3.57;;
8213;SDS011;4148;47.974;7.824;2022-11-15T06:15:04;3.87;;;3.40;;
8213;SDS011;4148;47.974;7.824;2022-11-15T06:17:34;5.27;;;3.77;;
8213;SDS011;4148;47.974;7.824;2022-11-15T06:20:02;5.13;;;3.53;;
8213;SDS011;4148;47.974;7.824;2022-11-15T06:22:30;4.77;;;3.43;;
8213;SDS011;4148;47.974;7.824;2022-11-15T06:24:58;5.37;;;3.53;;
8213;SDS011;4148;47.974;7.824;2022-11-15T06:27:30;5.27;;;3.97;;
8213;SDS011;4148;47.974;7.824;2022-11-15T06:29:58;8.63;;;4.07;;
8213;SDS011;4148;47.974;7.824;2022-11-15T06:32:26;7.60;;;4.07;;
8213;SDS011;4148;47.974;7.824;2022-11-15T06:34:57;7.90;;;4.13;;
8213;SDS011;4148;47.974;7.824;2022-11-15T06:37:25;4.73;;;4.00;;
8213;SDS011;4148;47.974;7.824;2022-11-15T06:39:52;6.63;;;4.67;;
8213;SDS011;4148;47.974;7.824;2022-11-15T06:42:20;5.00;;;4.13;;
8213;SDS011;4148;47.974;7.824;2022-11-15T06:44:48;7.07;;;4.10;;
8213;SDS011;4148;47.974;7.824;2022-11-15T06:47:16;8.30;;;5.10;;
8213;SDS011;4148;47.974;7.824;2022-11-15T06:49:44;11.30;;;4.33;;
8213;SDS011;4148;47.974;7.824;2022-11-15T06:52:13;7.57;;;4.70;;
8213;SDS011;4148;47.974;7.824;2022-11-15T06:54:40;6.40;;;4.47;;
8213;SDS011;4148;47.974;7.824;2022-11-15T06:57:08;7.47;;;4.20;;
8213;SDS011;4148;47.974;7.824;2022-11-15T06:59:36;8.63;;;4.83;;
8213;SDS011;4148;47.974;7.824;2022-11-15T07:02:06;7.37;;;4.97;;
8213;SDS011;4148;47.974;7.824;2022-11-15T07:04:38;8.87;;;5.03;;
8213;SDS011;4148;47.974;7.824;2022-11-15T07:07:05;5.57;;;4.63;;
8213;SDS011;4148;47.974;7.824;2022-11-15T07:09:35;6.13;;;4.60;;
8213;SDS011;4148;47.974;7.824;2022-11-15T07:12:03;5.40;;;4.53;;
8213;SDS011;4148;47.974;7.824;2022-11-15T07:14:33;6.20;;;4.70;;
8213;SDS011;4148;47.974;7.824;2022-11-15T07:17:03;7.50;;;4.47;;
8213;SDS011;4148;47.974;7.824;2022-11-15T07:19:31;8.17;;;5.27;;
8213;SDS011;4148;47.974;7.824;2022-11-15T07:21:59;10.10;;;5.00;;
8213;SDS011;4148;47.974;7.824;2022-11-15T07:24:26;7.40;;;4.87;;
8213;SDS011;4148;47.974;7.824;2022-11-15T07:26:56;8.70;;;5.77;;
8213;SDS011;4148;47.974;7.824;2022-11-15T07:29:24;10.03;;;5.20;;
8213;SDS011;4148;47.974;7.824;2022-11-15T07:31:52;7.97;;;5.17;;
8213;SDS011;4148;47.974;7.824;2022-11-15T07:34:20;7.97;;;5.17;;
8213;SDS011;4148;47.974;7.824;2022-11-15T07:36:48;8.63;;;4.90;;
8213;SDS011;4148;47.974;7.824;2022-11-15T07:39:16;8.90;;;4.83;;
8213;SDS011;4148;47.974;7.824;2022-11-15T07:41:43;8.07;;;4.63;;
8213;SDS011;4148;47.974;7.824;2022-11-15T07:44:15;10.40;;;4.57;;
8213;SDS011;4148;47.974;7.824;2022-11-15T07:46:43;5.57;;;4.10;;
8213;SDS011;4148;47.974;7.824;2022-11-15T07:49:10;5.70;;;4.17;;
8213;SDS011;4148;47.974;7.824;2022-11-15T07:51:38;6.00;;;4.50;;
8213;SDS011;4148;47.974;7.824;2022-11-15T07:54:06;4.43;;;3.70;;
8213;SDS011;4148;47.974;7.824;2022-11-15T07:56:34;5.17;;;3.80;;
8213;SDS011;4148;47.974;7.824;2022-11-15T07:59:02;6.83;;;4.23;;
8213;SDS011;4148;47.974;7.824;2022-11-15T08:01:31;5.80;;;4.00;;
8213;SDS011;4148;47.974;7.824;2022-11-15T08:03:59;4.67;;;3.87;;
8213;SDS011;4148;47.974;7.824;2022-11-15T08:06:27;6.57;;;4.70;;
8213;SDS011;4148;47.974;7.824;2022-11-15T08:08:55;4.53;;;3.87;;
8213;SDS011;4148;47.974;7.824;2022-11-15T08:11:23;6.10;;;4.10;;
8213;SDS011;4148;47.974;7.824;2022-11-15T08:13:51;5.37;;;3.60;;
8213;SDS011;4148;47.974;7.824;2022-11-15T08:16:18;4.47;;;2.70;;
8213;SDS011;4148;47.974;7.824;2022-11-15T08:18:48;3.53;;;2.60;;
8213;SDS011;4148;47.974;7.824;2022-11-15T08:21:17;3.80;;;2.80;;
8213;SDS011;4148;47.974;7.824;2022-11-15T08:23:46;4.90;;;3.47;;
8213;SDS011;4148;47.974;7.824;2022-11-15T08:26:14;5.80;;;3.30;;
8213;SDS011;4148;47.974;7.824;2022-11-15T08:28:42;5.07;;;3.30;;
8213;SDS011;4148;47.974;7.824;2022-11-15T08:31:13;4.43;;;2.60;;
8213;SDS011;4148;47.974;7.824;2022-11-15T08:33:43;4.30;;;3.07;;
8213;SDS011;4148;47.974;7.824;2022-11-15T08:36:13;4.13;;;3.00;;
8213;SDS011;4148;47.974;7.824;2022-11-15T08:38:42;6.10;;;3.30;;
8213;SDS011;4148;47.974;7.824;2022-11-15T08:41:11;5.03;;;3.40;;
8213;SDS011;4148;47.974;7.824;2022-11-15T08:43:41;4.37;;;2.90;;
8213;SDS011;4148;47.974;7.824;2022-11-15T08:46:10;4.33;;;2.97;;
8213;SDS011;4148;47.974;7.824;2022-11-15T08:48:40;6.43;;;3.73;;
8213;SDS011;4148;47.974;7.824;2022-11-15T08:51:08;4.00;;;2.90;;
8213;SDS011;4148;47.974;7.824;2022-11-15T08:53:37;4.50;;;3.10;;
8213;SDS011;4148;47.974;7.824;2022-11-15T08:56:06;4.80;;;3.13;;
8213;SDS011;4148;47.974;7.824;2022-11-15T08:58:35;3.73;;;2.80;;
8213;SDS011;4148;47.974;7.824;2022-11-15T09:01:03;5.23;;;3.10;;
8213;SDS011;4148;47.974;7.824;2022-11-15T09:03:32;3.93;;;3.00;;
8213;SDS011;4148;47.974;7.824;2022-11-15T09:06:00;6.00;;;4.00;;
8213;SDS011;4148;47.974;7.824;2022-11-15T09:08:29;5.50;;;3.50;;
8213;SDS011;4148;47.974;7.824;2022-11-15T09:11:14;9.40;;;4.90;;
8213;SDS011;4148;47.974;7.824;2022-11-15T09:13:46;6.00;;;4.17;;
8213;SDS011;4148;47.974;7.824;2022-11-15T09:16:14;5.83;;;5.13;;
8213;SDS011;4148;47.974;7.824;2022-11-15T09:18:42;14.73;;;7.07;;
8213;SDS011;4148;47.974;7.824;2022-11-15T09:21:10;10.10;;;5.77;;
8213;SDS011;4148;47.974;7.824;2022-11-15T09:23:38;8.10;;;6.10;;
8213;SDS011;4148;47.974;7.824;2022-11-15T09:26:05;7.00;;;5.50;;
8213;SDS011;4148;47.974;7.824;2022-11-15T09:28:35;7.40;;;6.37;;
8213;SDS011;4148;47.974;7.824;2022-11-15T09:31:05;6.53;;;5.67;;
8213;SDS011;4148;47.974;7.824;2022-11-15T09:33:33;9.50;;;5.60;;
8213;SDS011;4148;47.974;7.824;2022-11-15T09:36:01;8.53;;;5.57;;
8213;SDS011;4148;47.974;7.824;2022-11-15T09:38:30;7.33;;;6.00;;
8213;SDS011;4148;47.974;7.824;2022-11-15T09:41:08;7.13;;;5.23;;
8213;SDS011;4148;47.974;7.824;2022-11-15T09:43:58;6.97;;;5.60;;
8213;SDS011;4148;47.974;7.824;2022-11-15T09:46:37;7.60;;;5.30;;
8213;SDS011;4148;47.974;7.824;2022-11-15T09:49:17;10.73;;;5.97;;
8213;SDS011;4148;47.974;7.824;2022-11-15T09:51:47;9.67;;;5.80;;
8213;SDS011;4148;47.974;7.824;2022-11-15T09:54:23;8.40;;;6.07;;
8213;SDS011;4148;47.974;7.824;2022-11-15T09:57:16;11.70;;;6.37;;
8213;SDS011;4148;47.974;7.824;2022-11-15T09:59:54;9.60;;;6.40;;
8213;SDS011;4148;47.974;7.824;2022-11-15T10:02:52;12.40;;;5.73;;
8213;SDS011;4148;47.974;7.824;2022-11-15T10:05:28;8.47;;;5.83;;
8213;SDS011;4148;47.974;7.824;2022-11-15T10:07:58;13.60;;;7.03;;
8213;SDS011;4148;47.974;7.824;2022-11-15T10:10:34;12.73;;;7.40;;
8213;SDS011;4148;47.974;7.824;2022-11-15T10:13:07;15.13;;;6.30;;
8213;SDS011;4148;47.974;7.824;2022-11-15T10:15:42;11.57;;;5.80;;
8213;SDS011;4148;47.974;7.824;2022-11-15T10:18:14;13.03;;;5.73;;
8213;SDS011;4148;47.974;7.824;2022-11-15T10:20:48;9.30;;;5.07;;
8213;SDS011;4148;47.974;7.824;2022-11-15T10:23:19;9.13;;;5.80;;
8213;SDS011;4148;47.974;7.824;2022-11-15T10:25:50;13.40;;;4.77;;
8213;SDS011;4148;47.974;7.824;2022-11-15T10:28:22;12.23;;;6.37;;
8213;SDS011;4148;47.974;7.824;2022-11-15T10:30:55;9.73;;;5.77;;
8213;SDS011;4148;47.974;7.824;2022-11-15T10:33:25;8.90;;;5.97;;
8213;SDS011;4148;47.974;7.824;2022-11-15T10:38:52;15.00;;;6.87;;
8213;SDS011;4148;47.974;7.824;2022-11-15T10:41:22;11.47;;;6.03;;
8213;SDS011;4148;47.974;7.824;2022-11-15T10:44:20;9.40;;;5.20;;
8213;SDS011;4148;47.974;7.824;2022-11-15T10:47:22;6.83;;;5.47;;
8213;SDS011;4148;47.974;7.824;2022-11-15T10:49:58;9.33;;;5.33;;
8213;SDS011;4148;47.974;7.824;2022-11-15T10:52:28;6.80;;;4.97;;
8213;SDS011;4148;47.974;7.824;2022-11-15T10:55:00;8.70;;;5.00;;
8213;SDS011;4148;47.974;7.824;2022-11-15T10:57:31;8.90;;;4.47;;
8213;SDS011;4148;47.974;7.824;2022-11-15T11:00:03;8.67;;;5.17;;
8213;SDS011;4148;47.974;7.824;2022-11-15T11:02:35;7.67;;;5.80;;
8213;SDS011;4148;47.974;7.824;2022-11-15T11:05:05;10.60;;;6.10;;
8213;SDS011;4148;47.974;7.824;2022-11-15T11:07:55;8.47;;;5.70;;
8213;SDS011;4148;47.974;7.824;2022-11-15T11:10:24;7.60;;;5.23;;
8213;SDS011;4148;47.974;7.824;2022-11-15T11:13:13;8.70;;;6.30;;
8213;SDS011;4148;47.974;7.824;2022-11-15T11:15:42;12.07;;;6.90;;
8213;SDS011;4148;47.974;7.824;2022-11-15T11:18:14;6.80;;;4.87;;
8213;SDS011;4148;47.974;7.824;2022-11-15T11:20:54;8.33;;;5.13;;
8213;SDS011;4148;47.974;7.824;2022-11-15T11:23:35;9.10;;;5.80;;
8213;SDS011;4148;47.974;7.824;2022-11-15T11:26:16;6.70;;;4.77;;
8213;SDS011;4148;47.974;7.824;2022-11-15T11:28:59;5.83;;;4.33;;
8213;SDS011;4148;47.974;7.824;2022-11-15T11:31:36;6.20;;;4.40;;
8213;SDS011;4148;47.974;7.824;2022-11-15T11:34:17;12.63;;;5.00;;
8213;SDS011;4148;47.974;7.824;2022-11-15T11:36:58;5.20;;;3.93;;
8213;SDS011;4148;47.974;7.824;2022-11-15T11:39:31;8.10;;;4.87;;
8213;SDS011;4148;47.974;7.824;2022-11-15T11:42:14;7.27;;;5.17;;
8213;SDS011;4148;47.974;7.824;2022-11-15T11:44:52;5.37;;;4.50;;
8213;SDS011;4148;47.974;7.824;2022-11-15T11:47:32;6.57;;;4.60;;
8213;SDS011;4148;47.974;7.824;2022-11-15T11:50:11;10.93;;;5.03;;
8213;SDS011;4148;47.974;7.824;2022-11-15T11:52:43;5.30;;;4.20;;
8213;SDS011;4148;47.974;7.824;2022-11-15T11:55:31;8.40;;;4.83;;
8213;SDS011;4148;47.974;7.824;2022-11-15T11:58:04;6.27;;;4.60;;
8213;SDS011;4148;47.974;7.824;2022-11-15T12:00:39;5.90;;;4.23;;
8213;SDS011;4148;47.974;7.824;2022-11-15T12:03:11;5.20;;;4.03;;
8213;SDS011;4148;47.974;7.824;2022-11-15T12:05:58;12.33;;;4.33;;
8213;SDS011;4148;47.974;7.824;2022-11-15T12:08:31;6.37;;;3.97;;
8213;SDS011;4148;47.974;7.824;2022-11-15T12:11:06;8.80;;;4.67;;
8213;SDS011;4148;47.974;7.824;2022-11-15T12:13:37;7.00;;;4.77;;
8213;SDS011;4148;47.974;7.824;2022-11-15T12:16:09;6.03;;;4.43;;
8213;SDS011;4148;47.974;7.824;2022-11-15T12:18:42;6.73;;;5.40;;
8213;SDS011;4148;47.974;7.824;2022-11-15T12:21:16;6.00;;;5.10;;
8213;SDS011;4148;47.974;7.824;2022-11-15T12:23:54;6.60;;;4.43;;
8213;SDS011;4148;47.974;7.824;2022-11-15T12:26:28;7.93;;;5.13;;
8213;SDS011;4148;47.974;7.824;2022-11-15T12:29:03;7.07;;;5.60;;
8213;SDS011;4148;47.974;7.824;2022-11-15T12:31:36;8.43;;;6.00;;
8213;SDS011;4148;47.974;7.824;2022-11-15T12:34:13;7.40;;;6.00;;
8213;SDS011;4148;47.974;7.824;2022-11-15T12:36:58;10.20;;;6.47;;
8213;SDS011;4148;47.974;7.824;2022-11-15T12:42:38;10.77;;;6.60;;
8213;SDS011;4148;47.974;7.824;2022-11-15T12:45:23;11.30;;;6.83;;
8213;SDS011;4148;47.974;7.824;2022-11-15T12:47:53;6.63;;;5.60;;
8213;SDS011;4148;47.974;7.824;2022-11-15T12:53:29;9.83;;;6.90;;
8213;SDS011;4148;47.974;7.824;2022-11-15T12:56:09;10.80;;;6.63;;
8213;SDS011;4148;47.974;7.824;2022-11-15T12:58:47;7.77;;;5.93;;
8213;SDS011;4148;47.974;7.824;2022-11-15T13:04:25;6.97;;;5.40;;
8213;SDS011;4148;47.974;7.824;2022-11-15T13:06:56;7.93;;;5.33;;
8213;SDS011;4148;47.974;7.824;2022-11-15T13:15:31;7.27;;;4.90;;
8213;SDS011;4148;47.974;7.824;2022-11-15T13:18:23;11.90;;;4.50;;
8213;SDS011;4148;47.974;7.824;2022-11-15T13:20:56;6.03;;;4.40;;
8213;SDS011;4148;47.974;7.824;2022-11-15T13:23:28;6.47;;;4.20;;
8213;SDS011;4148;47.974;7.824;2022-11-15T13:26:05;7.83;;;3.57;;
8213;SDS011;4148;47.974;7.824;2022-11-15T13:28:42;5.37;;;3.67;;
8213;SDS011;4148;47.974;7.824;2022-11-15T13:31:19;5.50;;;3.90;;
8213;SDS011;4148;47.974;7.824;2022-11-15T13:33:59;5.40;;;4.37;;
8213;SDS011;4148;47.974;7.824;2022-11-15T13:36:29;5.87;;;4.37;;
8213;SDS011;4148;47.974;7.824;2022-11-15T13:39:00;6.10;;;4.67;;
8213;SDS011;4148;47.974;7.824;2022-11-15T13:41:33;7.40;;;5.03;;
8213;SDS011;4148;47.974;7.824;2022-11-15T13:44:03;6.67;;;4.30;;
8213;SDS011;4148;47.974;7.824;2022-11-15T13:46:45;6.80;;;4.67;;
8213;SDS011;4148;47.974;7.824;2022-11-15T13:49:13;5.37;;;3.87;;
8213;SDS011;4148;47.974;7.824;2022-11-15T13:51:42;5.00;;;3.67;;
8213;SDS011;4148;47.974;7.824;2022-11-15T13:54:16;5.30;;;3.50;;
8213;SDS011;4148;47.974;7.824;2022-11-15T13:56:49;5.43;;;3.80;;
8213;SDS011;4148;47.974;7.824;2022-11-15T13:59:24;5.23;;;3.80;;
8213;SDS011;4148;47.974;7.824;2022-11-15T14:01:53;4.93;;;3.00;;
8213;SDS011;4148;47.974;7.824;2022-11-15T14:04:23;4.50;;;3.37;;
8213;SDS011;4148;47.974;7.824;2022-11-15T14:06:56;8.03;;;4.77;;
8213;SDS011;4148;47.974;7.824;2022-11-15T14:09:32;7.67;;;4.47;;
8213;SDS011;4148;47.974;7.824;2022-11-15T14:14:55;5.30;;;4.27;;
8213;SDS011;4148;47.974;7.824;2022-11-15T14:17:33;6.53;;;4.30;;
8213;SDS011;4148;47.974;7.824;2022-11-15T14:22:51;9.40;;;5.30;;
8213;SDS011;4148;47.974;7.824;2022-11-15T14:25:20;7.10;;;6.10;;
8213;SDS011;4148;47.974;7.824;2022-11-15T14:28:09;8.40;;;6.33;;
8213;SDS011;4148;47.974;7.824;2022-11-15T14:30:40;9.60;;;7.60;;
8213;SDS011;4148;47.974;7.824;2022-11-15T14:33:17;10.20;;;7.00;;
8213;SDS011;4148;47.974;7.824;2022-11-15T14:35:50;11.67;;;7.43;;
8213;SDS011;4148;47.974;7.824;2022-11-15T14:38:19;9.30;;;8.00;;
8213;SDS011;4148;47.974;7.824;2022-11-15T14:40:46;9.27;;;7.33;;
8213;SDS011;4148;47.974;7.824;2022-11-15T14:43:17;7.70;;;6.50;;
8213;SDS011;4148;47.974;7.824;2022-11-15T14:45:45;12.50;;;6.67;;
8213;SDS011;4148;47.974;7.824;2022-11-15T14:48:13;10.20;;;6.70;;
8213;SDS011;4148;47.974;7.824;2022-11-15T14:50:41;10.23;;;6.37;;
8213;SDS011;4148;47.974;7.824;2022-11-15T14:53:11;11.90;;;6.77;;
8213;SDS011;4148;47.974;7.824;2022-11-15T14:55:40;11.67;;;5.67;;
8213;SDS011;4148;47.974;7.824;2022-11-15T14:58:08;10.10;;;6.67;;
8213;SDS011;4148;47.974;7.824;2022-11-15T15:00:39;12.10;;;6.17;;
8213;SDS011;4148;47.974;7.824;2022-11-15T15:03:08;11.90;;;6.80;;
8213;SDS011;4148;47.974;7.824;2022-11-15T15:05:36;7.70;;;6.17;;
8213;SDS011;4148;47.974;7.824;2022-11-15T15:08:06;8.30;;;6.17;;
8213;SDS011;4148;47.974;7.824;2022-11-15T15:10:35;8.47;;;6.67;;
8213;SDS011;4148;47.974;7.824;2022-11-15T15:13:08;8.63;;;6.97;;
8213;SDS011;4148;47.974;7.824;2022-11-15T15:15:44;9.00;;;6.47;;
8213;SDS011;4148;47.974;7.824;2022-11-15T15:18:12;11.23;;;7.23;;
8213;SDS011;4148;47.974;7.824;2022-11-15T15:20:41;9.77;;;7.60;;
8213;SDS011;4148;47.974;7.824;2022-11-15T15:23:15;14.50;;;8.10;;
8213;SDS011;4148;47.974;7.824;2022-11-15T15:25:44;10.33;;;8.33;;
8213;SDS011;4148;47.974;7.824;2022-11-15T15:28:14;10.40;;;7.47;;
8213;SDS011;4148;47.974;7.824;2022-11-15T15:30:43;15.40;;;9.30;;
8213;SDS011;4148;47.974;7.824;2022-11-15T15:33:11;16.03;;;9.97;;
8213;SDS011;4148;47.974;7.824;2022-11-15T15:35:39;13.37;;;9.53;;
8213;SDS011;4148;47.974;7.824;2022-11-15T15:38:08;12.73;;;9.13;;
8213;SDS011;4148;47.974;7.824;2022-11-15T15:40:38;11.07;;;8.50;;
8213;SDS011;4148;47.974;7.824;2022-11-15T15:43:06;13.80;;;10.20;;
8213;SDS011;4148;47.974;7.824;2022-11-15T15:45:36;16.30;;;9.87;;
8213;SDS011;4148;47.974;7.824;2022-11-15T15:48:07;11.97;;;9.10;;
8213;SDS011;4148;47.974;7.824;2022-11-15T15:50:38;12.70;;;9.23;;
8213;SDS011;4148;47.974;7.824;2022-11-15T15:53:06;13.27;;;9.27;;
8213;SDS011;4148;47.974;7.824;2022-11-15T15:55:34;10.67;;;8.53;;
8213;SDS011;4148;47.974;7.824;2022-11-15T15:58:02;11.30;;;9.40;;
8213;SDS011;4148;47.974;7.824;2022-11-15T16:00:31;13.07;;;9.80;;
8213;SDS011;4148;47.974;7.824;2022-11-15T16:02:59;11.50;;;8.77;;
8213;SDS011;4148;47.974;7.824;2022-11-15T16:05:28;13.47;;;9.43;;
8213;SDS011;4148;47.974;7.824;2022-11-15T16:07:56;13.97;;;9.50;;
8213;SDS011;4148;47.974;7.824;2022-11-15T16:10:25;15.10;;;10.07;;